sensor_id;sensor_type;location;lat;lon;timestamp;temperature;humidity
38480;DHT22;62333;51.980;5.934;2022-09-09T00:01:46;18.80;70.90
38480;DHT22;62333;51.980;5.934;2022-09-09T00:06:45;18.80;71.10
38480;DHT22;62333;51.980;5.934;2022-09-09T00:09:12;18.80;71.10
38480;DHT22;62333;51.980;5.934;2022-09-09T00:14:12;18.80;70.80
38480;DHT22;62333;51.980;5.934;2022-09-09T00:16:39;18.80;70.70
38480;DHT22;62333;51.980;5.934;2022-09-09T00:19:20;18.90;70.70
38480;DHT22;62333;51.980;5.934;2022-09-09T00:21:49;18.80;70.80
38480;DHT22;62333;51.980;5.934;2022-09-09T00:24:23;18.80;70.80
38480;DHT22;62333;51.980;5.934;2022-09-09T00:26:51;18.80;70.80
38480;DHT22;62333;51.980;5.934;2022-09-09T00:31:44;18.80;71.50
38480;DHT22;62333;51.980;5.934;2022-09-09T00:34:11;18.80;71.00
38480;DHT22;62333;51.980;5.934;2022-09-09T00:36:38;18.80;71.10
38480;DHT22;62333;51.980;5.934;2022-09-09T00:39:04;18.70;71.30
38480;DHT22;62333;51.980;5.934;2022-09-09T00:41:40;18.70;71.30
38480;DHT22;62333;51.980;5.934;2022-09-09T00:46:59;18.70;71.40
38480;DHT22;62333;51.980;5.934;2022-09-09T00:57:29;18.60;71.50
38480;DHT22;62333;51.980;5.934;2022-09-09T01:00:17;18.60;71.60
38480;DHT22;62333;51.980;5.934;2022-09-09T01:07:53;18.50;72.80
38480;DHT22;62333;51.980;5.934;2022-09-09T01:13:28;18.40;72.60
38480;DHT22;62333;51.980;5.934;2022-09-09T01:15:59;18.50;72.60
38480;DHT22;62333;51.980;5.934;2022-09-09T01:18:29;18.50;72.60
38480;DHT22;62333;51.980;5.934;2022-09-09T01:28:50;18.30;73.10
38480;DHT22;62333;51.980;5.934;2022-09-09T01:31:21;18.20;73.10
38480;DHT22;62333;51.980;5.934;2022-09-09T01:33:48;18.20;73.10
38480;DHT22;62333;51.980;5.934;2022-09-09T01:36:17;18.20;73.10
38480;DHT22;62333;51.980;5.934;2022-09-09T01:38:44;18.20;73.10
38480;DHT22;62333;51.980;5.934;2022-09-09T01:41:10;18.20;73.10
38480;DHT22;62333;51.980;5.934;2022-09-09T01:43:35;18.20;73.10
38480;DHT22;62333;51.980;5.934;2022-09-09T01:46:01;18.10;73.10
38480;DHT22;62333;51.980;5.934;2022-09-09T01:48:28;18.10;73.20
38480;DHT22;62333;51.980;5.934;2022-09-09T01:50:54;18.00;73.20
38480;DHT22;62333;51.980;5.934;2022-09-09T01:53:20;18.00;73.20
38480;DHT22;62333;51.980;5.934;2022-09-09T01:55:50;18.10;73.30
38480;DHT22;62333;51.980;5.934;2022-09-09T01:58:20;18.00;73.60
38480;DHT22;62333;51.980;5.934;2022-09-09T02:03:35;17.90;73.80
38480;DHT22;62333;51.980;5.934;2022-09-09T02:08:46;17.80;73.80
38480;DHT22;62333;51.980;5.934;2022-09-09T02:11:14;17.80;74.00
38480;DHT22;62333;51.980;5.934;2022-09-09T02:13:40;17.80;74.00
38480;DHT22;62333;51.980;5.934;2022-09-09T02:16:18;17.80;74.00
38480;DHT22;62333;51.980;5.934;2022-09-09T02:18:55;17.70;74.20
38480;DHT22;62333;51.980;5.934;2022-09-09T02:21:21;17.70;74.10
38480;DHT22;62333;51.980;5.934;2022-09-09T02:23:47;17.70;74.50
38480;DHT22;62333;51.980;5.934;2022-09-09T02:26:14;17.60;74.30
38480;DHT22;62333;51.980;5.934;2022-09-09T02:28:45;17.60;74.40
38480;DHT22;62333;51.980;5.934;2022-09-09T02:31:11;17.70;74.40
38480;DHT22;62333;51.980;5.934;2022-09-09T02:33:40;17.60;74.20
38480;DHT22;62333;51.980;5.934;2022-09-09T02:36:07;17.60;74.20
38480;DHT22;62333;51.980;5.934;2022-09-09T02:38:35;17.60;74.10
38480;DHT22;62333;51.980;5.934;2022-09-09T02:41:02;17.60;74.00
38480;DHT22;62333;51.980;5.934;2022-09-09T02:43:32;17.60;74.00
38480;DHT22;62333;51.980;5.934;2022-09-09T02:53:17;17.50;74.20
38480;DHT22;62333;51.980;5.934;2022-09-09T02:58:11;17.30;74.40
38480;DHT22;62333;51.980;5.934;2022-09-09T03:00:39;17.40;74.60
38480;DHT22;62333;51.980;5.934;2022-09-09T03:03:05;17.30;74.60
38480;DHT22;62333;51.980;5.934;2022-09-09T03:05:31;17.30;74.60
38480;DHT22;62333;51.980;5.934;2022-09-09T03:07:57;17.20;74.80
38480;DHT22;62333;51.980;5.934;2022-09-09T03:10:23;17.20;74.90
38480;DHT22;62333;51.980;5.934;2022-09-09T03:12:48;17.20;75.30
38480;DHT22;62333;51.980;5.934;2022-09-09T03:15:14;17.20;75.50
38480;DHT22;62333;51.980;5.934;2022-09-09T03:17:40;17.10;75.70
38480;DHT22;62333;51.980;5.934;2022-09-09T03:20:06;17.10;75.70
38480;DHT22;62333;51.980;5.934;2022-09-09T03:22:32;17.10;75.60
38480;DHT22;62333;51.980;5.934;2022-09-09T03:24:58;17.20;75.50
38480;DHT22;62333;51.980;5.934;2022-09-09T03:27:23;17.20;75.30
38480;DHT22;62333;51.980;5.934;2022-09-09T03:29:49;17.30;75.30
38480;DHT22;62333;51.980;5.934;2022-09-09T03:32:16;17.30;75.10
38480;DHT22;62333;51.980;5.934;2022-09-09T03:34:42;17.30;75.00
38480;DHT22;62333;51.980;5.934;2022-09-09T03:37:08;17.30;74.90
38480;DHT22;62333;51.980;5.934;2022-09-09T03:39:33;17.30;75.10
38480;DHT22;62333;51.980;5.934;2022-09-09T03:41:59;17.20;75.60
38480;DHT22;62333;51.980;5.934;2022-09-09T03:44:24;17.20;75.90
38480;DHT22;62333;51.980;5.934;2022-09-09T03:46:50;17.10;76.10
38480;DHT22;62333;51.980;5.934;2022-09-09T03:49:15;17.00;76.00
38480;DHT22;62333;51.980;5.934;2022-09-09T03:51:42;17.00;76.20
38480;DHT22;62333;51.980;5.934;2022-09-09T03:54:07;17.00;76.40
38480;DHT22;62333;51.980;5.934;2022-09-09T03:56:35;17.00;76.40
38480;DHT22;62333;51.980;5.934;2022-09-09T03:59:01;17.00;76.30
38480;DHT22;62333;51.980;5.934;2022-09-09T04:01:27;17.00;76.20
38480;DHT22;62333;51.980;5.934;2022-09-09T04:03:53;17.00;76.10
38480;DHT22;62333;51.980;5.934;2022-09-09T04:06:18;17.10;76.20
38480;DHT22;62333;51.980;5.934;2022-09-09T04:08:45;17.10;76.20
38480;DHT22;62333;51.980;5.934;2022-09-09T04:11:13;17.10;76.30
38480;DHT22;62333;51.980;5.934;2022-09-09T04:13:39;17.00;76.20
38480;DHT22;62333;51.980;5.934;2022-09-09T04:16:05;17.10;76.10
38480;DHT22;62333;51.980;5.934;2022-09-09T04:18:31;17.10;76.10
38480;DHT22;62333;51.980;5.934;2022-09-09T04:20:56;17.10;76.20
38480;DHT22;62333;51.980;5.934;2022-09-09T04:23:22;17.00;76.10
38480;DHT22;62333;51.980;5.934;2022-09-09T04:25:50;17.10;76.20
38480;DHT22;62333;51.980;5.934;2022-09-09T04:28:16;17.00;76.20
38480;DHT22;62333;51.980;5.934;2022-09-09T04:30:42;17.00;76.20
38480;DHT22;62333;51.980;5.934;2022-09-09T04:33:11;17.00;76.30
38480;DHT22;62333;51.980;5.934;2022-09-09T04:35:37;17.10;76.30
38480;DHT22;62333;51.980;5.934;2022-09-09T04:38:04;17.10;76.20
38480;DHT22;62333;51.980;5.934;2022-09-09T04:40:30;17.10;76.20
38480;DHT22;62333;51.980;5.934;2022-09-09T04:42:59;17.10;76.10
38480;DHT22;62333;51.980;5.934;2022-09-09T04:45:24;17.10;76.10
38480;DHT22;62333;51.980;5.934;2022-09-09T04:47:51;17.20;76.10
38480;DHT22;62333;51.980;5.934;2022-09-09T04:50:17;17.20;76.10
38480;DHT22;62333;51.980;5.934;2022-09-09T04:52:44;17.20;76.10
38480;DHT22;62333;51.980;5.934;2022-09-09T04:55:09;17.20;76.00
38480;DHT22;62333;51.980;5.934;2022-09-09T04:57:35;17.20;76.00
38480;DHT22;62333;51.980;5.934;2022-09-09T05:00:00;17.20;76.40
38480;DHT22;62333;51.980;5.934;2022-09-09T05:02:27;17.20;76.60
38480;DHT22;62333;51.980;5.934;2022-09-09T05:04:53;17.10;76.70
38480;DHT22;62333;51.980;5.934;2022-09-09T05:07:19;17.10;76.90
38480;DHT22;62333;51.980;5.934;2022-09-09T05:09:44;17.10;77.00
38480;DHT22;62333;51.980;5.934;2022-09-09T05:12:10;17.10;77.00
38480;DHT22;62333;51.980;5.934;2022-09-09T05:14:36;17.20;77.00
38480;DHT22;62333;51.980;5.934;2022-09-09T05:17:03;17.20;76.80
38480;DHT22;62333;51.980;5.934;2022-09-09T05:19:28;17.20;76.80
38480;DHT22;62333;51.980;5.934;2022-09-09T05:21:54;17.20;76.80
38480;DHT22;62333;51.980;5.934;2022-09-09T05:24:19;17.20;77.00
38480;DHT22;62333;51.980;5.934;2022-09-09T05:26:45;17.30;77.00
38480;DHT22;62333;51.980;5.934;2022-09-09T05:29:10;17.30;77.30
38480;DHT22;62333;51.980;5.934;2022-09-09T05:31:36;17.20;77.30
38480;DHT22;62333;51.980;5.934;2022-09-09T05:34:02;17.30;77.50
38480;DHT22;62333;51.980;5.934;2022-09-09T05:36:27;17.30;78.30
38480;DHT22;62333;51.980;5.934;2022-09-09T05:38:53;17.30;78.20
38480;DHT22;62333;51.980;5.934;2022-09-09T05:41:21;17.30;78.30
38480;DHT22;62333;51.980;5.934;2022-09-09T05:43:48;17.30;79.00
38480;DHT22;62333;51.980;5.934;2022-09-09T05:46:15;17.20;79.00
38480;DHT22;62333;51.980;5.934;2022-09-09T05:48:42;17.30;79.00
38480;DHT22;62333;51.980;5.934;2022-09-09T05:51:11;17.20;79.40
38480;DHT22;62333;51.980;5.934;2022-09-09T05:53:38;17.30;79.70
38480;DHT22;62333;51.980;5.934;2022-09-09T05:56:08;17.30;79.60
38480;DHT22;62333;51.980;5.934;2022-09-09T05:58:38;17.30;79.60
38480;DHT22;62333;51.980;5.934;2022-09-09T06:01:11;17.30;80.40
38480;DHT22;62333;51.980;5.934;2022-09-09T06:03:37;17.40;80.40
38480;DHT22;62333;51.980;5.934;2022-09-09T06:06:04;17.40;80.50
38480;DHT22;62333;51.980;5.934;2022-09-09T06:08:31;17.50;80.70
38480;DHT22;62333;51.980;5.934;2022-09-09T06:11:01;17.50;81.30
38480;DHT22;62333;51.980;5.934;2022-09-09T06:13:27;17.60;81.00
38480;DHT22;62333;51.980;5.934;2022-09-09T06:15:53;17.70;80.70
38480;DHT22;62333;51.980;5.934;2022-09-09T06:18:19;17.90;80.50
38480;DHT22;62333;51.980;5.934;2022-09-09T06:20:54;18.00;80.10
38480;DHT22;62333;51.980;5.934;2022-09-09T06:23:19;18.10;79.80
38480;DHT22;62333;51.980;5.934;2022-09-09T06:25:45;18.20;79.50
38480;DHT22;62333;51.980;5.934;2022-09-09T06:28:11;18.20;79.50
38480;DHT22;62333;51.980;5.934;2022-09-09T06:30:37;18.10;79.50
38480;DHT22;62333;51.980;5.934;2022-09-09T06:33:03;18.10;79.70
38480;DHT22;62333;51.980;5.934;2022-09-09T06:35:29;18.10;79.80
38480;DHT22;62333;51.980;5.934;2022-09-09T06:37:54;18.10;80.00
38480;DHT22;62333;51.980;5.934;2022-09-09T06:40:19;18.00;80.00
38480;DHT22;62333;51.980;5.934;2022-09-09T06:42:45;17.90;80.10
38480;DHT22;62333;51.980;5.934;2022-09-09T06:45:11;17.90;80.20
38480;DHT22;62333;51.980;5.934;2022-09-09T06:47:37;17.90;80.30
38480;DHT22;62333;51.980;5.934;2022-09-09T06:50:02;17.80;80.40
38480;DHT22;62333;51.980;5.934;2022-09-09T06:52:28;17.90;81.20
38480;DHT22;62333;51.980;5.934;2022-09-09T06:54:53;18.00;80.50
38480;DHT22;62333;51.980;5.934;2022-09-09T06:57:19;18.00;80.50
38480;DHT22;62333;51.980;5.934;2022-09-09T06:59:45;18.00;80.50
38480;DHT22;62333;51.980;5.934;2022-09-09T07:02:10;18.00;80.30
38480;DHT22;62333;51.980;5.934;2022-09-09T07:04:36;18.10;80.40
38480;DHT22;62333;51.980;5.934;2022-09-09T07:07:02;18.10;80.30
38480;DHT22;62333;51.980;5.934;2022-09-09T07:09:28;18.20;80.10
38480;DHT22;62333;51.980;5.934;2022-09-09T07:11:54;18.30;80.00
38480;DHT22;62333;51.980;5.934;2022-09-09T07:14:20;18.30;79.80
38480;DHT22;62333;51.980;5.934;2022-09-09T07:16:47;18.30;79.80
38480;DHT22;62333;51.980;5.934;2022-09-09T07:19:13;18.30;79.60
38480;DHT22;62333;51.980;5.934;2022-09-09T07:21:39;18.40;79.50
38480;DHT22;62333;51.980;5.934;2022-09-09T07:24:08;18.40;79.30
38480;DHT22;62333;51.980;5.934;2022-09-09T07:26:35;18.40;79.30
38480;DHT22;62333;51.980;5.934;2022-09-09T07:29:01;18.40;79.40
38480;DHT22;62333;51.980;5.934;2022-09-09T07:31:28;18.50;79.30
38480;DHT22;62333;51.980;5.934;2022-09-09T07:34:56;18.50;78.50
38480;DHT22;62333;51.980;5.934;2022-09-09T07:37:23;18.50;78.70
38480;DHT22;62333;51.980;5.934;2022-09-09T07:39:49;18.60;78.70
38480;DHT22;62333;51.980;5.934;2022-09-09T07:42:16;18.60;78.60
38480;DHT22;62333;51.980;5.934;2022-09-09T07:44:42;18.60;78.50
38480;DHT22;62333;51.980;5.934;2022-09-09T07:47:08;18.60;78.40
38480;DHT22;62333;51.980;5.934;2022-09-09T07:49:33;18.70;78.50
38480;DHT22;62333;51.980;5.934;2022-09-09T07:52:00;18.80;78.30
38480;DHT22;62333;51.980;5.934;2022-09-09T07:54:26;18.80;77.80
38480;DHT22;62333;51.980;5.934;2022-09-09T07:56:52;18.80;77.50
38480;DHT22;62333;51.980;5.934;2022-09-09T07:59:18;18.70;77.20
38480;DHT22;62333;51.980;5.934;2022-09-09T08:01:49;18.50;77.20
38480;DHT22;62333;51.980;5.934;2022-09-09T08:04:19;18.40;77.50
38480;DHT22;62333;51.980;5.934;2022-09-09T08:09:12;18.40;78.00
38480;DHT22;62333;51.980;5.934;2022-09-09T08:11:38;18.40;78.00
38480;DHT22;62333;51.980;5.934;2022-09-09T08:14:05;18.40;78.00
38480;DHT22;62333;51.980;5.934;2022-09-09T08:16:34;18.40;78.10
38480;DHT22;62333;51.980;5.934;2022-09-09T08:19:02;18.30;78.10
38480;DHT22;62333;51.980;5.934;2022-09-09T08:21:30;18.30;78.10
38480;DHT22;62333;51.980;5.934;2022-09-09T08:23:58;18.30;78.20
38480;DHT22;62333;51.980;5.934;2022-09-09T08:26:29;18.30;78.10
38480;DHT22;62333;51.980;5.934;2022-09-09T08:28:57;18.30;78.00
38480;DHT22;62333;51.980;5.934;2022-09-09T08:31:28;18.30;77.90
38480;DHT22;62333;51.980;5.934;2022-09-09T08:33:56;18.30;77.90
38480;DHT22;62333;51.980;5.934;2022-09-09T08:36:24;18.40;77.80
38480;DHT22;62333;51.980;5.934;2022-09-09T08:38:53;18.40;77.80
38480;DHT22;62333;51.980;5.934;2022-09-09T08:44:34;18.40;77.60
38480;DHT22;62333;51.980;5.934;2022-09-09T08:52:30;18.40;77.60
38480;DHT22;62333;51.980;5.934;2022-09-09T08:57:39;18.40;77.70
38480;DHT22;62333;51.980;5.934;2022-09-09T09:00:05;18.40;77.70
38480;DHT22;62333;51.980;5.934;2022-09-09T09:03:03;18.50;77.70
38480;DHT22;62333;51.980;5.934;2022-09-09T09:05:37;18.50;77.50
38480;DHT22;62333;51.980;5.934;2022-09-09T09:08:20;18.50;77.40
38480;DHT22;62333;51.980;5.934;2022-09-09T09:10:54;18.50;77.40
38480;DHT22;62333;51.980;5.934;2022-09-09T09:15:53;18.50;76.50
38480;DHT22;62333;51.980;5.934;2022-09-09T09:18:22;18.50;75.90
38480;DHT22;62333;51.980;5.934;2022-09-09T09:23:26;18.60;75.50
38480;DHT22;62333;51.980;5.934;2022-09-09T09:25:56;18.60;75.50
38480;DHT22;62333;51.980;5.934;2022-09-09T09:28:29;18.60;75.20
38480;DHT22;62333;51.980;5.934;2022-09-09T09:31:03;18.60;75.10
38480;DHT22;62333;51.980;5.934;2022-09-09T09:36:09;18.60;75.10
38480;DHT22;62333;51.980;5.934;2022-09-09T09:38:36;18.70;75.00
38480;DHT22;62333;51.980;5.934;2022-09-09T09:41:02;18.60;75.00
38480;DHT22;62333;51.980;5.934;2022-09-09T09:43:36;18.60;75.00
38480;DHT22;62333;51.980;5.934;2022-09-09T09:46:16;18.70;75.10
38480;DHT22;62333;51.980;5.934;2022-09-09T09:48:43;18.70;74.80
38480;DHT22;62333;51.980;5.934;2022-09-09T09:51:13;18.70;74.50
38480;DHT22;62333;51.980;5.934;2022-09-09T09:53:41;18.80;74.50
38480;DHT22;62333;51.980;5.934;2022-09-09T09:56:13;18.90;74.30
38480;DHT22;62333;51.980;5.934;2022-09-09T10:04:13;19.00;73.20
38480;DHT22;62333;51.980;5.934;2022-09-09T10:06:39;19.10;73.30
38480;DHT22;62333;51.980;5.934;2022-09-09T10:11:59;19.20;73.30
38480;DHT22;62333;51.980;5.934;2022-09-09T10:17:27;19.10;73.10
38480;DHT22;62333;51.980;5.934;2022-09-09T10:22:34;19.20;72.90
38480;DHT22;62333;51.980;5.934;2022-09-09T10:27:58;19.20;72.90
38480;DHT22;62333;51.980;5.934;2022-09-09T10:33:10;19.20;72.90
38480;DHT22;62333;51.980;5.934;2022-09-09T10:35:44;19.20;72.90
38480;DHT22;62333;51.980;5.934;2022-09-09T10:38:28;19.20;73.00
38480;DHT22;62333;51.980;5.934;2022-09-09T10:46:57;19.30;72.80
38480;DHT22;62333;51.980;5.934;2022-09-09T10:55:15;19.10;73.30
38480;DHT22;62333;51.980;5.934;2022-09-09T10:57:47;19.00;73.50
38480;DHT22;62333;51.980;5.934;2022-09-09T11:00:18;18.90;73.70
38480;DHT22;62333;51.980;5.934;2022-09-09T11:02:56;19.00;73.80
38480;DHT22;62333;51.980;5.934;2022-09-09T11:13:17;19.20;73.10
38480;DHT22;62333;51.980;5.934;2022-09-09T11:15:46;19.20;72.60
38480;DHT22;62333;51.980;5.934;2022-09-09T11:18:19;19.20;72.80
38480;DHT22;62333;51.980;5.934;2022-09-09T11:20:51;19.20;72.80
38480;DHT22;62333;51.980;5.934;2022-09-09T11:23:24;19.10;73.00
38480;DHT22;62333;51.980;5.934;2022-09-09T11:25:57;19.10;74.30
38480;DHT22;62333;51.980;5.934;2022-09-09T11:44:38;18.70;78.20
38480;DHT22;62333;51.980;5.934;2022-09-09T11:49:45;18.90;78.10
38480;DHT22;62333;51.980;5.934;2022-09-09T11:54:56;19.00;77.20
38480;DHT22;62333;51.980;5.934;2022-09-09T11:57:32;18.90;77.30
38480;DHT22;62333;51.980;5.934;2022-09-09T12:00:00;18.90;77.90
38480;DHT22;62333;51.980;5.934;2022-09-09T12:02:28;18.70;79.10
38480;DHT22;62333;51.980;5.934;2022-09-09T12:07:35;18.30;82.00
38480;DHT22;62333;51.980;5.934;2022-09-09T12:10:17;18.20;83.00
38480;DHT22;62333;51.980;5.934;2022-09-09T12:12:44;18.10;84.10
38480;DHT22;62333;51.980;5.934;2022-09-09T12:17:46;18.10;84.70
38480;DHT22;62333;51.980;5.934;2022-09-09T12:20:38;18.20;84.20
38480;DHT22;62333;51.980;5.934;2022-09-09T12:23:32;18.20;84.00
38480;DHT22;62333;51.980;5.934;2022-09-09T12:31:47;18.20;83.60
38480;DHT22;62333;51.980;5.934;2022-09-09T12:36:53;18.30;82.90
38480;DHT22;62333;51.980;5.934;2022-09-09T12:39:56;18.40;82.70
38480;DHT22;62333;51.980;5.934;2022-09-09T12:42:23;18.60;82.20
38480;DHT22;62333;51.980;5.934;2022-09-09T12:44:54;18.80;81.80
38480;DHT22;62333;51.980;5.934;2022-09-09T12:48:24;18.80;80.70
38480;DHT22;62333;51.980;5.934;2022-09-09T12:50:23;18.90;80.40
38480;DHT22;62333;51.980;5.934;2022-09-09T12:53:01;19.00;79.80
38480;DHT22;62333;51.980;5.934;2022-09-09T12:55:31;19.10;79.60
38480;DHT22;62333;51.980;5.934;2022-09-09T12:57:59;19.20;79.50
38480;DHT22;62333;51.980;5.934;2022-09-09T13:00:26;19.30;79.80
38480;DHT22;62333;51.980;5.934;2022-09-09T13:02:57;19.40;78.80
38480;DHT22;62333;51.980;5.934;2022-09-09T13:05:35;19.50;78.60
38480;DHT22;62333;51.980;5.934;2022-09-09T13:08:05;19.50;78.30
38480;DHT22;62333;51.980;5.934;2022-09-09T13:10:38;19.50;78.10
38480;DHT22;62333;51.980;5.934;2022-09-09T13:13:17;19.50;77.80
38480;DHT22;62333;51.980;5.934;2022-09-09T13:15:56;19.40;78.40
38480;DHT22;62333;51.980;5.934;2022-09-09T13:18:25;19.20;80.00
38480;DHT22;62333;51.980;5.934;2022-09-09T13:20:52;19.10;80.60
38480;DHT22;62333;51.980;5.934;2022-09-09T13:23:20;19.00;81.40
38480;DHT22;62333;51.980;5.934;2022-09-09T13:26:00;18.90;82.00
38480;DHT22;62333;51.980;5.934;2022-09-09T13:28:29;18.90;82.10
38480;DHT22;62333;51.980;5.934;2022-09-09T13:31:01;19.00;81.40
38480;DHT22;62333;51.980;5.934;2022-09-09T13:33:37;19.10;80.50
38480;DHT22;62333;51.980;5.934;2022-09-09T13:36:11;19.20;80.20
38480;DHT22;62333;51.980;5.934;2022-09-09T13:38:53;19.30;79.90
38480;DHT22;62333;51.980;5.934;2022-09-09T13:41:25;19.30;79.20
38480;DHT22;62333;51.980;5.934;2022-09-09T13:43:52;19.40;78.70
38480;DHT22;62333;51.980;5.934;2022-09-09T13:46:31;19.30;78.50
38480;DHT22;62333;51.980;5.934;2022-09-09T13:49:20;19.40;78.50
38480;DHT22;62333;51.980;5.934;2022-09-09T13:51:49;19.50;78.10
38480;DHT22;62333;51.980;5.934;2022-09-09T13:54:18;19.60;77.90
38480;DHT22;62333;51.980;5.934;2022-09-09T13:56:45;19.60;77.70
38480;DHT22;62333;51.980;5.934;2022-09-09T13:59:12;19.60;77.50
38480;DHT22;62333;51.980;5.934;2022-09-09T14:01:39;19.60;77.60
38480;DHT22;62333;51.980;5.934;2022-09-09T14:04:06;19.60;77.50
38480;DHT22;62333;51.980;5.934;2022-09-09T14:06:32;19.50;77.60
38480;DHT22;62333;51.980;5.934;2022-09-09T14:09:01;19.50;77.70
38480;DHT22;62333;51.980;5.934;2022-09-09T14:11:29;19.50;77.90
38480;DHT22;62333;51.980;5.934;2022-09-09T14:13:55;19.50;78.10
38480;DHT22;62333;51.980;5.934;2022-09-09T14:16:21;19.50;78.20
38480;DHT22;62333;51.980;5.934;2022-09-09T14:18:47;19.60;77.70
38480;DHT22;62333;51.980;5.934;2022-09-09T14:21:13;19.60;76.70
38480;DHT22;62333;51.980;5.934;2022-09-09T14:23:41;19.60;76.40
38480;DHT22;62333;51.980;5.934;2022-09-09T14:26:07;19.60;76.20
38480;DHT22;62333;51.980;5.934;2022-09-09T14:28:34;19.60;76.30
38480;DHT22;62333;51.980;5.934;2022-09-09T14:31:00;19.60;76.30
38480;DHT22;62333;51.980;5.934;2022-09-09T14:33:27;19.60;76.50
38480;DHT22;62333;51.980;5.934;2022-09-09T14:35:59;19.50;76.70
38480;DHT22;62333;51.980;5.934;2022-09-09T14:38:28;19.60;76.90
38480;DHT22;62333;51.980;5.934;2022-09-09T14:40:54;19.60;77.00
38480;DHT22;62333;51.980;5.934;2022-09-09T14:43:21;19.60;77.00
38480;DHT22;62333;51.980;5.934;2022-09-09T14:45:47;19.60;77.00
38480;DHT22;62333;51.980;5.934;2022-09-09T14:48:14;19.60;77.60
38480;DHT22;62333;51.980;5.934;2022-09-09T14:50:40;19.60;77.00
38480;DHT22;62333;51.980;5.934;2022-09-09T14:53:07;19.70;77.10
38480;DHT22;62333;51.980;5.934;2022-09-09T14:55:34;19.70;77.00
38480;DHT22;62333;51.980;5.934;2022-09-09T14:58:00;19.70;76.80
38480;DHT22;62333;51.980;5.934;2022-09-09T15:00:29;19.70;76.60
38480;DHT22;62333;51.980;5.934;2022-09-09T15:02:55;19.70;76.60
38480;DHT22;62333;51.980;5.934;2022-09-09T15:05:22;19.80;76.70
38480;DHT22;62333;51.980;5.934;2022-09-09T15:07:47;19.80;76.60
38480;DHT22;62333;51.980;5.934;2022-09-09T15:10:16;19.90;76.60
38480;DHT22;62333;51.980;5.934;2022-09-09T15:12:45;19.90;76.40
38480;DHT22;62333;51.980;5.934;2022-09-09T15:15:11;19.90;76.30
38480;DHT22;62333;51.980;5.934;2022-09-09T15:17:40;19.90;76.20
38480;DHT22;62333;51.980;5.934;2022-09-09T15:20:06;19.90;76.10
38480;DHT22;62333;51.980;5.934;2022-09-09T15:22:32;19.90;76.20
38480;DHT22;62333;51.980;5.934;2022-09-09T15:24:59;20.00;76.20
38480;DHT22;62333;51.980;5.934;2022-09-09T15:27:24;19.90;76.10
38480;DHT22;62333;51.980;5.934;2022-09-09T15:29:50;20.00;76.20
38480;DHT22;62333;51.980;5.934;2022-09-09T15:32:17;19.90;76.30
38480;DHT22;62333;51.980;5.934;2022-09-09T15:34:43;19.90;76.60
38480;DHT22;62333;51.980;5.934;2022-09-09T15:37:12;19.90;76.90
38480;DHT22;62333;51.980;5.934;2022-09-09T15:39:41;19.90;77.10
38480;DHT22;62333;51.980;5.934;2022-09-09T15:42:07;19.80;77.10
38480;DHT22;62333;51.980;5.934;2022-09-09T15:44:43;19.80;77.10
38480;DHT22;62333;51.980;5.934;2022-09-09T15:47:11;19.80;77.00
38480;DHT22;62333;51.980;5.934;2022-09-09T15:49:38;19.90;77.00
38480;DHT22;62333;51.980;5.934;2022-09-09T15:52:04;19.90;76.90
38480;DHT22;62333;51.980;5.934;2022-09-09T15:54:34;19.90;76.10
38480;DHT22;62333;51.980;5.934;2022-09-09T15:57:03;19.90;76.10
38480;DHT22;62333;51.980;5.934;2022-09-09T15:59:30;19.90;76.00
38480;DHT22;62333;51.980;5.934;2022-09-09T16:01:57;19.90;75.60
38480;DHT22;62333;51.980;5.934;2022-09-09T16:04:25;19.90;75.50
38480;DHT22;62333;51.980;5.934;2022-09-09T16:06:52;19.90;75.40
38480;DHT22;62333;51.980;5.934;2022-09-09T16:09:18;19.90;75.40
38480;DHT22;62333;51.980;5.934;2022-09-09T16:11:45;19.90;75.70
38480;DHT22;62333;51.980;5.934;2022-09-09T16:14:12;19.80;76.90
38480;DHT22;62333;51.980;5.934;2022-09-09T16:16:38;19.60;77.40
38480;DHT22;62333;51.980;5.934;2022-09-09T16:19:06;19.40;77.80
38480;DHT22;62333;51.980;5.934;2022-09-09T16:21:52;19.30;78.40
38480;DHT22;62333;51.980;5.934;2022-09-09T16:24:19;19.20;78.50
38480;DHT22;62333;51.980;5.934;2022-09-09T16:26:50;19.30;78.70
38480;DHT22;62333;51.980;5.934;2022-09-09T16:29:17;19.20;78.70
38480;DHT22;62333;51.980;5.934;2022-09-09T16:31:44;19.30;78.70
38480;DHT22;62333;51.980;5.934;2022-09-09T16:34:10;19.30;78.70
38480;DHT22;62333;51.980;5.934;2022-09-09T16:36:38;19.40;78.60
38480;DHT22;62333;51.980;5.934;2022-09-09T16:39:12;19.50;78.60
38480;DHT22;62333;51.980;5.934;2022-09-09T16:41:38;19.50;78.50
38480;DHT22;62333;51.980;5.934;2022-09-09T16:44:06;19.50;78.40
38480;DHT22;62333;51.980;5.934;2022-09-09T16:46:34;19.50;78.60
38480;DHT22;62333;51.980;5.934;2022-09-09T16:49:02;19.50;78.70
38480;DHT22;62333;51.980;5.934;2022-09-09T16:51:42;19.50;78.70
38480;DHT22;62333;51.980;5.934;2022-09-09T16:54:09;19.50;78.70
38480;DHT22;62333;51.980;5.934;2022-09-09T16:56:37;19.40;78.50
38480;DHT22;62333;51.980;5.934;2022-09-09T16:59:06;19.40;78.40
38480;DHT22;62333;51.980;5.934;2022-09-09T17:01:35;19.40;78.20
38480;DHT22;62333;51.980;5.934;2022-09-09T17:04:08;19.30;78.20
38480;DHT22;62333;51.980;5.934;2022-09-09T17:06:34;19.30;78.20
38480;DHT22;62333;51.980;5.934;2022-09-09T17:09:10;19.30;78.20
38480;DHT22;62333;51.980;5.934;2022-09-09T17:11:37;19.30;78.20
38480;DHT22;62333;51.980;5.934;2022-09-09T17:14:05;19.30;78.20
38480;DHT22;62333;51.980;5.934;2022-09-09T17:16:32;19.30;78.20
38480;DHT22;62333;51.980;5.934;2022-09-09T17:19:01;19.30;78.10
38480;DHT22;62333;51.980;5.934;2022-09-09T17:21:29;19.40;78.20
38480;DHT22;62333;51.980;5.934;2022-09-09T17:23:58;19.40;78.20
38480;DHT22;62333;51.980;5.934;2022-09-09T17:26:27;19.40;78.20
38480;DHT22;62333;51.980;5.934;2022-09-09T17:28:53;19.40;78.20
38480;DHT22;62333;51.980;5.934;2022-09-09T17:31:20;19.30;78.20
38480;DHT22;62333;51.980;5.934;2022-09-09T17:33:49;19.30;78.20
38480;DHT22;62333;51.980;5.934;2022-09-09T17:36:18;19.30;78.30
38480;DHT22;62333;51.980;5.934;2022-09-09T17:38:44;19.30;78.30
38480;DHT22;62333;51.980;5.934;2022-09-09T17:41:16;19.30;79.00
38480;DHT22;62333;51.980;5.934;2022-09-09T17:43:42;19.30;78.50
38480;DHT22;62333;51.980;5.934;2022-09-09T17:46:16;19.20;78.60
38480;DHT22;62333;51.980;5.934;2022-09-09T17:48:43;19.10;78.70
38480;DHT22;62333;51.980;5.934;2022-09-09T17:51:13;19.10;78.80
38480;DHT22;62333;51.980;5.934;2022-09-09T17:53:41;19.10;78.80
38480;DHT22;62333;51.980;5.934;2022-09-09T17:56:09;19.10;78.90
38480;DHT22;62333;51.980;5.934;2022-09-09T17:58:36;19.00;78.90
38480;DHT22;62333;51.980;5.934;2022-09-09T18:01:13;19.00;79.00
38480;DHT22;62333;51.980;5.934;2022-09-09T18:03:40;19.00;79.10
38480;DHT22;62333;51.980;5.934;2022-09-09T18:06:16;18.90;79.30